createdAt,value
2019-02-25T00:01:13.274Z,-1.91
2019-02-25T00:03:41.171Z,-2.03
2019-02-25T00:06:09.072Z,-2.10
2019-02-25T00:08:36.975Z,-2.13
2019-02-25T00:11:05.035Z,-2.10
2019-02-25T00:13:32.986Z,-2.07
2019-02-25T00:16:00.881Z,-2.06
2019-02-25T00:18:28.791Z,-2.07
2019-02-25T00:20:56.699Z,-2.10
2019-02-25T00:23:24.626Z,-2.18
2019-02-25T00:25:52.532Z,-2.25
2019-02-25T00:28:20.435Z,-2.30
2019-02-25T00:30:48.345Z,-2.32
2019-02-25T00:33:16.302Z,-2.36
2019-02-25T00:35:44.204Z,-2.31
2019-02-25T00:38:12.101Z,-2.15
2019-02-25T00:40:40.023Z,-2.15
2019-02-25T00:43:07.916Z,-2.15
2019-02-25T00:45:35.810Z,-2.25
2019-02-25T00:48:03.720Z,-2.30
2019-02-25T00:50:31.625Z,-2.34
2019-02-25T00:52:59.530Z,-2.41
2019-02-25T00:55:27.431Z,-2.50
2019-02-25T00:57:55.327Z,-2.52
2019-02-25T01:00:23.267Z,-2.49
2019-02-25T01:02:51.203Z,-2.50
2019-02-25T01:05:19.099Z,-2.54
2019-02-25T01:07:47.008Z,-2.52
2019-02-25T01:10:14.918Z,-2.55
2019-02-25T01:12:42.819Z,-2.58
2019-02-25T01:15:10.748Z,-2.61
2019-02-25T01:17:38.743Z,-2.61
2019-02-25T01:20:07.392Z,-2.64
2019-02-25T01:22:35.287Z,-2.62
2019-02-25T01:25:03.197Z,-2.46
2019-02-25T01:27:31.147Z,-2.46
2019-02-25T01:29:59.087Z,-2.47
2019-02-25T01:32:26.986Z,-2.12
2019-02-25T01:34:54.991Z,-2.23
2019-02-25T01:37:22.904Z,-2.24
2019-02-25T01:39:50.811Z,-2.37
2019-02-25T01:42:18.706Z,-2.42
2019-02-25T01:44:46.632Z,-2.40
2019-02-25T01:47:14.569Z,-2.38
2019-02-25T01:49:42.483Z,-2.45
2019-02-25T01:52:10.419Z,-2.56
2019-02-25T01:54:38.343Z,-2.55
2019-02-25T01:57:06.244Z,-2.44
2019-02-25T01:59:34.154Z,-2.52
2019-02-25T02:02:02.106Z,-2.59
2019-02-25T02:04:30.126Z,-2.58
2019-02-25T02:06:58.056Z,-2.61
2019-02-25T02:09:25.961Z,-2.73
2019-02-25T02:11:53.866Z,-2.76
2019-02-25T02:14:21.763Z,-2.78
2019-02-25T02:16:49.724Z,-2.78
2019-02-25T02:19:17.612Z,-2.79
2019-02-25T02:21:45.569Z,-2.87
2019-02-25T02:24:13.465Z,-2.91
2019-02-25T02:26:41.413Z,-2.98
2019-02-25T02:29:09.322Z,-3.02
2019-02-25T02:31:37.218Z,-3.03
2019-02-25T02:34:05.116Z,-3.07
2019-02-25T02:36:33.060Z,-3.11
2019-02-25T02:39:00.955Z,-3.12
2019-02-25T02:41:28.893Z,-3.10
2019-02-25T02:43:56.818Z,-3.09
2019-02-25T02:46:31.238Z,-3.12
2019-02-25T02:48:59.133Z,-3.09
2019-02-25T02:51:27.072Z,-3.12
2019-02-25T02:53:54.981Z,-3.14
2019-02-25T02:56:22.895Z,-2.93
2019-02-25T02:58:50.881Z,-3.03
2019-02-25T03:01:18.817Z,-3.12
2019-02-25T03:03:46.726Z,-3.12
2019-02-25T03:06:14.717Z,-3.12
2019-02-25T03:08:42.639Z,-3.15
2019-02-25T03:11:10.536Z,-3.23
2019-02-25T03:13:38.468Z,-3.28
2019-02-25T03:16:06.382Z,-3.30
2019-02-25T03:18:34.282Z,-3.30
2019-02-25T03:21:02.237Z,-3.32
2019-02-25T03:23:30.135Z,-3.34
2019-02-25T03:25:58.093Z,-3.28
2019-02-25T03:28:26.058Z,-3.08
2019-02-25T03:30:53.951Z,-3.10
2019-02-25T03:33:21.874Z,-3.13
2019-02-25T03:35:51.725Z,-3.20
2019-02-25T03:38:19.630Z,-3.25
2019-02-25T03:40:50.221Z,-3.30
2019-02-25T03:43:18.193Z,-3.37
2019-02-25T03:45:46.198Z,-3.36
2019-02-25T03:48:15.000Z,-3.34
2019-02-25T03:50:42.952Z,-3.35
2019-02-25T03:53:10.884Z,-3.26
2019-02-25T03:55:38.800Z,-3.25
2019-02-25T03:58:11.767Z,-3.31
2019-02-25T04:00:40.720Z,-3.32
2019-02-25T04:03:12.124Z,-3.36
2019-02-25T04:05:40.044Z,-3.40
2019-02-25T04:08:07.987Z,-3.41
2019-02-25T04:10:35.916Z,-3.39
2019-02-25T04:13:05.778Z,-3.40
2019-02-25T04:15:34.517Z,-3.43
2019-02-25T04:18:02.447Z,-3.47
2019-02-25T04:20:30.331Z,-3.48
2019-02-25T04:22:58.273Z,-3.44
2019-02-25T04:25:26.202Z,-3.43
2019-02-25T04:27:54.144Z,-3.45
2019-02-25T04:30:23.043Z,-3.53
2019-02-25T04:32:55.302Z,-3.55
2019-02-25T04:35:24.176Z,-3.57
2019-02-25T04:37:52.152Z,-3.56
2019-02-25T04:40:20.075Z,-3.59
2019-02-25T04:42:47.983Z,-3.58
2019-02-25T04:45:16.845Z,-3.55
2019-02-25T04:47:44.860Z,-3.57
2019-02-25T04:50:12.765Z,-3.58
2019-02-25T04:52:40.664Z,-3.56
2019-02-25T04:55:09.429Z,-3.58
2019-02-25T04:57:37.401Z,-3.59
2019-02-25T05:00:09.165Z,-3.52
2019-02-25T05:02:37.068Z,-3.53
2019-02-25T05:05:04.973Z,-3.58
2019-02-25T05:07:32.920Z,-3.62
2019-02-25T05:10:00.844Z,-3.64
2019-02-25T05:12:28.809Z,-3.63
2019-02-25T05:14:58.108Z,-3.61
2019-02-25T05:17:26.011Z,-3.61
2019-02-25T05:19:54.071Z,-3.64
2019-02-25T05:22:21.987Z,-3.68
2019-02-25T05:24:49.968Z,-3.62
2019-02-25T05:27:17.839Z,-3.62
2019-02-25T05:29:46.684Z,-3.63
2019-02-25T05:32:14.614Z,-3.59
2019-02-25T05:34:42.518Z,-3.58
2019-02-25T05:37:10.436Z,-3.56
2019-02-25T05:39:40.297Z,-3.42
2019-02-25T05:42:09.221Z,-3.42
2019-02-25T05:44:37.144Z,-3.34
2019-02-25T05:47:05.052Z,-3.22
2019-02-25T05:49:33.070Z,-3.15
2019-02-25T05:52:00.979Z,-3.12
2019-02-25T05:54:29.957Z,-3.08
2019-02-25T05:56:57.896Z,-3.08
2019-02-25T05:59:26.782Z,-3.03
2019-02-25T06:01:56.858Z,-2.94
2019-02-25T06:04:24.764Z,-3.03
2019-02-25T06:06:52.672Z,-3.18
2019-02-25T06:09:21.595Z,-3.18
2019-02-25T06:11:51.473Z,-2.98
2019-02-25T06:14:19.410Z,-3.00
2019-02-25T06:16:47.390Z,-2.96
2019-02-25T06:19:15.447Z,-3.01
2019-02-25T06:21:43.368Z,-3.08
2019-02-25T06:24:11.276Z,-3.01
2019-02-25T06:26:39.197Z,-2.90
2019-02-25T06:29:08.563Z,-2.90
2019-02-25T06:31:36.508Z,-2.91
2019-02-25T06:34:07.960Z,-2.89
2019-02-25T06:36:35.910Z,-2.87
2019-02-25T06:39:04.995Z,-2.79
2019-02-25T06:41:33.904Z,-2.71
2019-02-25T06:44:01.800Z,-2.70
2019-02-25T06:46:29.728Z,-2.62
2019-02-25T06:48:57.633Z,-2.50
2019-02-25T06:51:25.582Z,-2.34
2019-02-25T06:53:53.472Z,-2.26
2019-02-25T06:56:21.414Z,-2.22
2019-02-25T06:58:49.405Z,-2.11
2019-02-25T07:01:17.310Z,-1.92
2019-02-25T07:03:45.199Z,-1.72
2019-02-25T07:06:15.595Z,-1.59
2019-02-25T07:08:43.495Z,-1.44
2019-02-25T07:11:11.451Z,-1.30
2019-02-25T07:13:45.889Z,-1.12
2019-02-25T07:19:15.299Z,-0.90
2019-02-25T07:21:57.953Z,-0.70
2019-02-25T07:30:27.170Z,-0.39
2019-02-25T07:32:58.888Z,-0.20
2019-02-25T07:35:34.494Z,-0.09
2019-02-25T07:38:06.867Z,-0.01
2019-02-25T07:40:38.286Z,0.07
2019-02-25T07:43:16.114Z,0.31
2019-02-25T07:45:48.393Z,0.36
2019-02-25T07:48:27.123Z,0.46
2019-02-25T07:50:57.363Z,0.66
2019-02-25T07:53:26.817Z,0.84
2019-02-25T07:56:09.600Z,1.06
2019-02-25T07:58:38.335Z,1.20
2019-02-25T08:07:00.656Z,1.66
2019-02-25T08:09:28.557Z,1.87
2019-02-25T08:11:56.540Z,2.01
2019-02-25T08:14:29.973Z,2.21
2019-02-25T08:19:55.660Z,2.49
2019-02-25T08:22:28.097Z,2.74
2019-02-25T08:25:02.402Z,2.97
2019-02-25T08:27:33.139Z,3.20
2019-02-25T08:30:01.110Z,3.30
2019-02-25T08:32:29.011Z,3.61
2019-02-25T08:35:11.795Z,3.94
2019-02-25T08:37:42.552Z,4.36
2019-02-25T08:40:21.377Z,4.53
2019-02-25T08:42:48.719Z,4.88
2019-02-25T08:48:09.948Z,5.72
2019-02-25T08:50:37.841Z,5.94
2019-02-25T08:53:06.676Z,6.26
2019-02-25T08:55:34.567Z,6.60
2019-02-25T08:58:02.451Z,6.95
2019-02-25T09:00:30.426Z,7.16
2019-02-25T09:03:02.036Z,7.04
2019-02-25T09:05:29.948Z,7.51
2019-02-25T09:07:57.885Z,7.75
2019-02-25T09:10:25.774Z,8.19
2019-02-25T09:12:53.719Z,9.14
2019-02-25T09:15:21.823Z,10.73
2019-02-25T09:17:49.321Z,12.33
2019-02-25T09:20:17.227Z,13.80
2019-02-25T09:22:45.116Z,15.35
2019-02-25T09:25:13.595Z,16.10
2019-02-25T09:27:41.630Z,15.66
2019-02-25T09:30:13.802Z,18.59
2019-02-25T09:32:41.925Z,20.29
2019-02-25T09:35:09.831Z,19.46
2019-02-25T09:37:37.809Z,20.31
2019-02-25T09:40:05.712Z,22.02
2019-02-25T09:42:33.649Z,21.50
2019-02-25T09:45:01.595Z,20.88
2019-02-25T09:47:29.581Z,20.44
2019-02-25T09:49:57.556Z,23.13
2019-02-25T09:52:25.553Z,19.97
2019-02-25T09:54:53.459Z,23.69
2019-02-25T09:57:21.368Z,25.38
2019-02-25T09:59:49.685Z,26.57
2019-02-25T10:02:17.610Z,27.46
2019-02-25T10:04:45.552Z,25.12
2019-02-25T10:07:13.469Z,25.96
2019-02-25T10:09:41.373Z,26.08
2019-02-25T10:12:09.280Z,25.94
2019-02-25T10:14:37.327Z,27.73
2019-02-25T10:17:05.224Z,28.55
2019-02-25T10:19:34.759Z,24.96
2019-02-25T10:22:01.286Z,26.68
2019-02-25T10:24:29.178Z,26.78
2019-02-25T10:26:57.083Z,27.36
2019-02-25T10:29:25.043Z,28.46
2019-02-25T10:31:53.014Z,29.08
2019-02-25T10:34:23.938Z,27.19
2019-02-25T10:36:52.368Z,29.23
2019-02-25T10:39:19.816Z,27.01
2019-02-25T10:41:48.266Z,27.71
2019-02-25T10:44:16.149Z,28.73
2019-02-25T10:46:44.957Z,30.00
2019-02-25T10:49:11.996Z,30.06
2019-02-25T10:51:41.160Z,30.59
2019-02-25T10:54:07.894Z,31.48
2019-02-25T10:56:35.984Z,29.52
2019-02-25T10:59:05.696Z,27.50
2019-02-25T11:01:31.892Z,29.54
2019-02-25T11:03:59.765Z,29.37
2019-02-25T11:06:29.095Z,21.01
2019-02-25T11:08:55.560Z,24.88
2019-02-25T11:11:26.632Z,21.88
2019-02-25T11:13:51.396Z,24.45
2019-02-25T11:16:20.418Z,22.44
2019-02-25T11:18:47.274Z,20.00
2019-02-25T11:21:15.171Z,21.86
2019-02-25T11:23:45.061Z,22.61
2019-02-25T11:26:11.101Z,27.88
2019-02-25T11:28:41.077Z,24.45
2019-02-25T11:31:07.223Z,22.72
2019-02-25T11:33:35.260Z,20.92
2019-02-25T11:36:03.151Z,26.57
2019-02-25T11:38:34.225Z,28.31
2019-02-25T11:40:59.813Z,30.50
2019-02-25T11:43:27.060Z,30.23
2019-02-25T11:45:54.968Z,30.71
2019-02-25T11:48:22.964Z,27.95
2019-02-25T11:50:51.891Z,25.77
2019-02-25T11:53:19.800Z,29.99
2019-02-25T11:55:47.733Z,31.13
2019-02-25T11:58:16.627Z,32.43
2019-02-25T12:00:44.573Z,31.39
2019-02-25T12:03:12.474Z,30.25
2019-02-25T12:05:40.424Z,32.06
2019-02-25T12:08:08.344Z,24.52
2019-02-25T12:10:37.092Z,29.51
2019-02-25T12:13:05.056Z,30.31
2019-02-25T12:15:32.961Z,24.58
2019-02-25T12:18:00.872Z,23.54
2019-02-25T12:20:28.813Z,23.37
2019-02-25T12:22:56.720Z,27.69
2019-02-25T12:25:24.655Z,28.25
2019-02-25T12:27:52.553Z,30.93
2019-02-25T12:30:22.871Z,27.78
2019-02-25T12:32:50.808Z,27.63
2019-02-25T12:35:18.699Z,28.57
2019-02-25T12:37:46.626Z,29.35
2019-02-25T12:40:15.243Z,30.07
2019-02-25T12:42:43.223Z,24.90
2019-02-25T12:45:11.130Z,22.00
2019-02-25T12:47:39.037Z,25.35
2019-02-25T12:50:10.755Z,24.31
2019-02-25T12:52:39.604Z,20.98
2019-02-25T12:55:08.272Z,23.85
2019-02-25T12:57:36.239Z,28.07
2019-02-25T13:00:04.166Z,26.71
2019-02-25T13:02:32.059Z,24.76
2019-02-25T13:05:00.325Z,29.82
2019-02-25T13:07:28.084Z,30.39
2019-02-25T13:09:56.015Z,29.90
2019-02-25T13:12:24.079Z,30.54
2019-02-25T13:14:52.803Z,24.64
2019-02-25T13:17:20.695Z,28.20
2019-02-25T13:19:48.693Z,31.39
2019-02-25T13:22:16.607Z,31.62
2019-02-25T13:24:45.526Z,30.22
2019-02-25T13:27:13.898Z,27.27
2019-02-25T13:29:41.366Z,26.10
2019-02-25T13:32:09.264Z,30.73
2019-02-25T13:34:37.190Z,28.97
2019-02-25T13:37:05.133Z,29.90
2019-02-25T13:39:34.016Z,32.78
2019-02-25T13:42:01.937Z,31.80
2019-02-25T13:44:29.859Z,31.38
2019-02-25T13:46:57.890Z,32.15
2019-02-25T13:49:25.778Z,32.63
2019-02-25T13:51:53.693Z,31.74
2019-02-25T13:54:22.508Z,23.18
2019-02-25T13:56:50.421Z,28.63
2019-02-25T13:59:18.306Z,22.43
2019-02-25T14:01:46.237Z,24.59
2019-02-25T14:04:14.161Z,25.53
2019-02-25T14:06:42.077Z,26.84
2019-02-25T14:09:09.967Z,28.50
2019-02-25T14:11:39.783Z,30.29
2019-02-25T14:14:07.684Z,30.55
2019-02-25T14:16:35.605Z,24.57
2019-02-25T14:19:04.388Z,26.73
2019-02-25T14:21:34.501Z,25.71
2019-02-25T14:24:02.218Z,27.59
2019-02-25T14:26:30.136Z,30.58
2019-02-25T14:28:58.025Z,30.10
2019-02-25T14:31:27.295Z,25.23
2019-02-25T14:33:53.938Z,24.84
2019-02-25T14:36:21.853Z,23.38
2019-02-25T14:38:51.635Z,26.25
2019-02-25T14:41:21.207Z,28.38
2019-02-25T14:43:49.184Z,29.71
2019-02-25T14:46:17.308Z,29.85
2019-02-25T14:48:43.396Z,29.68
2019-02-25T14:51:11.365Z,29.83
2019-02-25T14:53:39.277Z,29.45
2019-02-25T14:56:07.216Z,29.24
2019-02-25T14:58:36.153Z,26.26
2019-02-25T15:01:03.087Z,28.38
2019-02-25T15:03:31.029Z,26.21
2019-02-25T15:05:59.306Z,26.42
2019-02-25T15:08:28.479Z,26.83
2019-02-25T15:10:55.534Z,23.84
2019-02-25T15:13:24.418Z,21.97
2019-02-25T15:15:50.725Z,22.04
2019-02-25T15:18:20.050Z,22.00
2019-02-25T15:20:46.571Z,23.13
2019-02-25T15:23:16.567Z,23.79
2019-02-25T15:25:43.223Z,24.25
2019-02-25T15:28:11.967Z,24.69
2019-02-25T15:30:38.366Z,24.68
2019-02-25T15:33:06.277Z,24.44
2019-02-25T15:35:36.627Z,23.84
2019-02-25T15:38:02.108Z,23.23
2019-02-25T15:40:30.007Z,22.83
2019-02-25T15:42:59.831Z,22.34
2019-02-25T15:45:28.844Z,21.11
2019-02-25T15:47:57.630Z,20.34
2019-02-25T15:50:23.635Z,19.85
2019-02-25T15:52:51.580Z,18.68
2019-02-25T15:55:21.241Z,17.64
2019-02-25T15:57:49.224Z,16.91
2019-02-25T16:00:19.091Z,16.82
2019-02-25T16:02:45.102Z,16.59
2019-02-25T16:05:13.034Z,16.36
2019-02-25T16:07:40.962Z,15.99
2019-02-25T16:10:11.874Z,15.67
2019-02-25T16:12:38.615Z,15.48
2019-02-25T16:15:11.488Z,14.80
2019-02-25T16:17:40.900Z,14.75
2019-02-25T16:20:09.397Z,14.70
2019-02-25T16:22:39.079Z,14.48
2019-02-25T16:25:05.375Z,14.03
2019-02-25T16:27:33.144Z,13.82
2019-02-25T16:30:02.928Z,13.56
2019-02-25T16:32:29.012Z,13.32
2019-02-25T16:34:58.564Z,13.24
2019-02-25T16:37:26.859Z,13.07
2019-02-25T16:39:53.701Z,12.81
2019-02-25T16:42:20.795Z,12.38
2019-02-25T16:44:48.696Z,12.16
2019-02-25T16:47:19.607Z,11.83
2019-02-25T16:49:45.512Z,11.45
2019-02-25T16:52:15.817Z,11.28
2019-02-25T16:54:43.411Z,11.15
2019-02-25T16:57:14.103Z,11.01
2019-02-25T16:59:40.230Z,10.78
2019-02-25T17:02:11.864Z,10.56
2019-02-25T17:04:37.028Z,10.40
2019-02-25T17:07:04.917Z,10.49
2019-02-25T17:09:34.225Z,10.27
2019-02-25T17:12:02.325Z,10.04
2019-02-25T17:14:28.669Z,9.73
2019-02-25T17:16:57.031Z,9.68
2019-02-25T17:19:25.394Z,9.54
2019-02-25T17:21:53.268Z,9.34
2019-02-25T17:24:23.691Z,9.28
2019-02-25T17:26:49.091Z,9.10
2019-02-25T17:29:17.937Z,8.79
2019-02-25T17:31:45.836Z,8.58
2019-02-25T17:34:14.387Z,8.45
2019-02-25T17:36:43.115Z,8.31
2019-02-25T17:39:12.528Z,8.20
2019-02-25T17:41:39.997Z,8.13
2019-02-25T17:44:06.427Z,8.05
2019-02-25T17:46:36.878Z,8.03
2019-02-25T17:49:03.200Z,7.93
2019-02-25T17:51:33.487Z,7.78
2019-02-25T17:54:01.437Z,7.64
2019-02-25T17:56:30.339Z,7.59
2019-02-25T17:58:59.404Z,7.53
2019-02-25T18:01:28.002Z,7.52
2019-02-25T18:03:55.120Z,7.42
2019-02-25T18:06:28.765Z,7.37
2019-02-25T18:08:51.460Z,7.28
2019-02-25T18:11:20.738Z,7.21
2019-02-25T18:13:49.031Z,7.10
2019-02-25T18:16:17.289Z,6.95
2019-02-25T18:18:47.493Z,6.83
2019-02-25T18:21:15.392Z,6.71
2019-02-25T18:23:44.295Z,6.64
2019-02-25T18:26:12.472Z,6.56
2019-02-25T18:28:41.644Z,6.46
2019-02-25T18:31:10.831Z,6.37
2019-02-25T18:33:35.933Z,6.31
2019-02-25T18:36:04.458Z,6.23
2019-02-25T18:38:31.804Z,6.19
2019-02-25T18:41:00.386Z,6.10
2019-02-25T18:43:30.217Z,6.07
2019-02-25T18:45:58.435Z,5.99
2019-02-25T18:48:27.364Z,5.99
2019-02-25T18:50:56.622Z,5.90
2019-02-25T18:53:22.606Z,5.81
2019-02-25T18:55:51.808Z,5.75
2019-02-25T18:58:18.304Z,5.70
2019-02-25T19:00:47.717Z,5.50
2019-02-25T19:03:15.084Z,5.34
2019-02-25T19:05:43.013Z,5.22
2019-02-25T19:08:19.200Z,5.25
2019-02-25T19:10:46.133Z,5.10
2019-02-25T19:13:13.288Z,4.90
2019-02-25T19:15:40.839Z,4.76
2019-02-25T19:18:09.479Z,4.73
2019-02-25T19:20:37.175Z,4.73
2019-02-25T19:23:05.400Z,4.61
2019-02-25T19:25:32.422Z,4.55
2019-02-25T19:28:00.318Z,4.48
2019-02-25T19:30:29.777Z,4.41
2019-02-25T19:32:56.162Z,4.30
2019-02-25T19:35:27.799Z,4.20
2019-02-25T19:37:52.071Z,4.22
2019-02-25T19:40:22.655Z,4.03
2019-02-25T19:42:51.540Z,3.84
2019-02-25T19:45:18.411Z,3.80
2019-02-25T19:47:46.312Z,3.61
2019-02-25T19:50:16.900Z,3.42
2019-02-25T19:52:46.694Z,3.38
2019-02-25T19:55:15.260Z,3.41
2019-02-25T19:57:42.493Z,3.45
2019-02-25T20:00:22.050Z,3.36
2019-02-25T20:02:48.915Z,3.27
2019-02-25T20:05:19.354Z,3.24
2019-02-25T20:07:47.671Z,3.22
2019-02-25T20:10:16.523Z,3.29
2019-02-25T20:12:44.463Z,3.28
2019-02-25T20:15:20.842Z,3.26
2019-02-25T20:17:48.849Z,3.21
2019-02-25T20:20:17.737Z,3.08
2019-02-25T20:22:45.635Z,2.89
2019-02-25T20:25:16.464Z,2.80
2019-02-25T20:27:42.418Z,2.73
2019-02-25T20:30:13.326Z,2.70
2019-02-25T20:32:42.831Z,2.63
2019-02-25T20:35:10.024Z,2.54
2019-02-25T20:37:37.917Z,2.61
2019-02-25T20:40:05.808Z,2.73
2019-02-25T20:42:34.732Z,2.66
2019-02-25T20:45:04.548Z,2.64
2019-02-25T20:47:30.512Z,2.57
2019-02-25T20:50:00.455Z,2.54
2019-02-25T20:52:26.301Z,2.55
2019-02-25T20:54:55.055Z,2.54
2019-02-25T20:57:22.947Z,2.53
2019-02-25T20:59:51.012Z,2.54
2019-02-25T21:02:20.739Z,2.54
2019-02-25T21:04:48.566Z,2.48
2019-02-25T21:07:14.614Z,2.49
2019-02-25T21:09:42.498Z,2.35
2019-02-25T21:12:13.213Z,2.16
2019-02-25T21:14:41.129Z,2.09
2019-02-25T21:17:07.155Z,2.00
2019-02-25T21:19:36.154Z,1.97
2019-02-25T21:22:04.508Z,1.91
2019-02-25T21:24:31.577Z,1.87
2019-02-25T21:27:01.465Z,1.88
2019-02-25T21:29:29.369Z,1.94
2019-02-25T21:31:56.986Z,1.86
2019-02-25T21:34:24.433Z,1.79
2019-02-25T21:36:54.653Z,1.78
2019-02-25T21:39:20.751Z,1.87
2019-02-25T21:41:48.698Z,1.96
2019-02-25T21:44:18.925Z,1.94
2019-02-25T21:46:49.590Z,1.89
2019-02-25T21:49:12.424Z,1.93
2019-02-25T21:51:41.968Z,1.88
2019-02-25T21:54:09.173Z,1.78
2019-02-25T21:56:37.056Z,1.80
2019-02-25T21:59:06.607Z,1.82
2019-02-25T22:01:34.540Z,1.79
2019-02-25T22:04:01.690Z,1.89
2019-02-25T22:06:31.192Z,1.81
2019-02-25T22:08:58.561Z,1.98
2019-02-25T22:11:25.471Z,1.90
2019-02-25T22:13:53.369Z,1.91
2019-02-25T22:16:21.927Z,1.86
2019-02-25T22:18:50.360Z,1.86
2019-02-25T22:21:21.272Z,1.76
2019-02-25T22:23:49.484Z,1.57
2019-02-25T22:26:16.636Z,1.56
2019-02-25T22:28:44.565Z,1.54
2019-02-25T22:31:13.857Z,1.60
2019-02-25T22:33:40.411Z,1.49
2019-02-25T22:36:08.259Z,1.45
2019-02-25T22:38:36.275Z,1.43
2019-02-25T22:41:04.157Z,1.47
2019-02-25T22:43:34.054Z,1.41
2019-02-25T22:46:02.531Z,1.39
2019-02-25T22:48:29.831Z,1.39
2019-02-25T22:51:00.712Z,1.40
2019-02-25T22:53:27.485Z,1.32
2019-02-25T22:55:55.359Z,1.36
2019-02-25T22:58:23.255Z,1.33
2019-02-25T23:00:51.141Z,1.34
2019-02-25T23:03:20.913Z,1.36
2019-02-25T23:05:50.086Z,1.27
2019-02-25T23:08:18.171Z,1.25
2019-02-25T23:10:46.765Z,1.42
2019-02-25T23:13:12.504Z,1.64
2019-02-25T23:15:42.087Z,1.48
2019-02-25T23:18:11.988Z,1.47
2019-02-25T23:20:37.079Z,1.41
2019-02-25T23:23:06.696Z,1.34
2019-02-25T23:25:32.896Z,1.53
2019-02-25T23:28:02.276Z,1.46
2019-02-25T23:30:29.653Z,1.46
2019-02-25T23:32:57.635Z,1.36
2019-02-25T23:35:25.539Z,1.29
2019-02-25T23:37:54.430Z,1.26
2019-02-25T23:40:22.259Z,1.16
2019-02-25T23:42:50.143Z,1.08
2019-02-25T23:45:20.451Z,0.95
2019-02-25T23:47:45.939Z,0.82
2019-02-25T23:50:14.761Z,0.75
2019-02-25T23:52:43.709Z,0.69
2019-02-25T23:55:16.512Z,0.56
2019-02-25T23:57:40.389Z,0.43
